createdAt,value
2022-12-06T00:01:50.127Z,2.72
2022-12-06T00:05:34.802Z,2.72
2022-12-06T00:09:26.816Z,2.74
2022-12-06T00:13:09.570Z,2.74
2022-12-06T00:16:54.961Z,2.73
2022-12-06T00:20:40.498Z,2.69
2022-12-06T00:24:29.241Z,2.67
2022-12-06T00:28:12.010Z,2.65
2022-12-06T00:31:56.881Z,2.60
2022-12-06T00:35:41.885Z,2.61
2022-12-06T00:39:32.340Z,2.59
2022-12-06T00:43:15.076Z,2.62
2022-12-06T00:46:58.052Z,2.64
2022-12-06T00:50:43.966Z,2.67
2022-12-06T00:54:26.752Z,2.69
2022-12-06T00:58:11.023Z,2.70
2022-12-06T01:01:55.986Z,2.71
2022-12-06T01:05:41.783Z,2.68
2022-12-06T01:09:31.411Z,2.67
2022-12-06T01:13:15.594Z,2.65
2022-12-06T01:16:58.383Z,2.68
2022-12-06T01:20:41.249Z,2.65
2022-12-06T01:24:24.021Z,2.60
2022-12-06T01:28:07.136Z,2.53
2022-12-06T01:31:51.190Z,2.50
2022-12-06T01:35:40.548Z,2.43
2022-12-06T01:39:24.946Z,2.42
2022-12-06T01:43:11.089Z,2.36
2022-12-06T01:46:55.846Z,2.34
2022-12-06T01:50:40.246Z,2.26
2022-12-06T01:58:24.766Z,2.14
2022-12-06T02:02:09.507Z,2.08
2022-12-06T02:05:53.052Z,1.96
2022-12-06T02:10:03.288Z,1.93
2022-12-06T02:13:46.729Z,1.89
2022-12-06T02:17:38.663Z,1.90
2022-12-06T02:21:27.422Z,1.92
2022-12-06T02:25:43.180Z,1.92
2022-12-06T02:29:50.388Z,1.88
2022-12-06T02:33:37.522Z,1.96
2022-12-06T02:37:26.624Z,2.00
2022-12-06T02:41:15.062Z,1.99
2022-12-06T02:45:00.061Z,2.03
2022-12-06T02:48:47.816Z,2.04
2022-12-06T02:52:33.691Z,2.03
2022-12-06T02:56:17.832Z,2.01
2022-12-06T03:00:04.026Z,2.01
2022-12-06T03:04:00.284Z,2.02
2022-12-06T03:07:49.317Z,2.01
2022-12-06T03:11:40.324Z,2.01
2022-12-06T03:15:29.612Z,1.90
2022-12-06T03:19:20.467Z,1.81
2022-12-06T03:23:06.644Z,1.81
2022-12-06T03:26:51.318Z,1.76
2022-12-06T03:30:35.804Z,1.73
2022-12-06T03:34:24.216Z,1.69
2022-12-06T03:38:10.557Z,1.67
2022-12-06T03:41:57.027Z,1.63
2022-12-06T03:45:42.720Z,1.58
2022-12-06T03:49:32.281Z,1.57
2022-12-06T03:53:17.735Z,1.62
2022-12-06T03:57:02.822Z,1.60
2022-12-06T04:00:46.851Z,1.62
2022-12-06T04:04:30.904Z,1.56
2022-12-06T04:08:13.703Z,1.48
2022-12-06T04:11:56.801Z,1.41
2022-12-06T04:15:45.101Z,1.37
2022-12-06T04:19:26.958Z,1.35
2022-12-06T04:23:12.967Z,1.33
2022-12-06T04:27:21.504Z,1.24
2022-12-06T04:31:24.826Z,1.20
2022-12-06T04:35:25.895Z,1.18
2022-12-06T04:39:10.236Z,1.15
2022-12-06T04:43:13.714Z,1.16
2022-12-06T04:47:00.213Z,1.15
2022-12-06T04:50:48.418Z,1.11
2022-12-06T04:54:32.508Z,1.08
2022-12-06T04:58:15.886Z,1.04
2022-12-06T05:01:58.570Z,1.04
2022-12-06T05:05:42.308Z,1.06
2022-12-06T05:09:25.064Z,1.03
2022-12-06T05:13:10.475Z,1.03
2022-12-06T05:16:53.372Z,1.03
2022-12-06T05:20:37.029Z,0.97
2022-12-06T05:24:19.749Z,1.00
2022-12-06T05:28:02.628Z,0.99
2022-12-06T05:31:46.996Z,0.98
2022-12-06T05:35:31.790Z,0.88
2022-12-06T05:39:14.606Z,0.85
2022-12-06T05:43:00.069Z,0.83
2022-12-06T05:46:42.791Z,0.81
2022-12-06T05:50:26.900Z,0.78
2022-12-06T05:54:09.657Z,0.74
2022-12-06T05:57:52.579Z,0.75
2022-12-06T06:01:35.330Z,0.75
2022-12-06T06:05:21.271Z,0.70
2022-12-06T06:09:05.454Z,0.71
2022-12-06T06:12:48.237Z,0.70
2022-12-06T06:16:33.034Z,0.74
2022-12-06T06:20:18.305Z,0.78
2022-12-06T06:24:07.437Z,0.76
2022-12-06T06:27:54.540Z,0.74
2022-12-06T06:31:37.920Z,0.74
2022-12-06T06:35:23.562Z,0.79
2022-12-06T06:39:06.330Z,0.89
2022-12-06T06:42:51.655Z,0.99
2022-12-06T06:46:34.647Z,1.05
2022-12-06T06:50:18.131Z,1.08
2022-12-06T06:54:01.322Z,1.10
2022-12-06T06:57:44.111Z,1.19
2022-12-06T07:01:31.149Z,1.26
2022-12-06T07:05:13.912Z,1.32
2022-12-06T07:08:56.893Z,1.35
2022-12-06T07:12:39.628Z,1.38
2022-12-06T07:16:22.389Z,1.41
2022-12-06T07:20:08.462Z,1.45
2022-12-06T07:23:51.916Z,1.43
2022-12-06T07:27:37.072Z,1.41
2022-12-06T07:31:22.127Z,1.35
2022-12-06T07:35:07.351Z,1.32
2022-12-06T07:38:51.177Z,1.35
2022-12-06T07:42:51.542Z,1.42
2022-12-06T07:46:34.480Z,1.41
2022-12-06T07:50:20.417Z,1.39
2022-12-06T07:54:05.913Z,1.44
2022-12-06T07:57:48.655Z,1.48
2022-12-06T08:01:31.462Z,1.52
2022-12-06T08:05:15.691Z,1.64
2022-12-06T08:08:59.908Z,1.73
2022-12-06T08:12:42.663Z,1.82
2022-12-06T08:16:25.437Z,1.92
2022-12-06T08:20:09.334Z,2.07
2022-12-06T08:23:53.201Z,2.25
2022-12-06T08:27:37.307Z,2.34
2022-12-06T08:31:23.268Z,2.39
2022-12-06T08:35:06.854Z,2.43
2022-12-06T08:38:51.161Z,2.53
2022-12-06T08:42:42.012Z,2.62
2022-12-06T08:46:25.176Z,2.67
2022-12-06T08:50:09.037Z,2.70
2022-12-06T08:53:53.359Z,2.74
2022-12-06T08:57:37.528Z,2.83
2022-12-06T09:01:23.377Z,2.90
2022-12-06T09:05:06.978Z,2.97
2022-12-06T09:08:49.968Z,3.03
2022-12-06T09:12:32.781Z,3.09
2022-12-06T09:16:19.040Z,3.13
2022-12-06T09:20:05.782Z,3.13
2022-12-06T09:23:49.885Z,3.24
2022-12-06T09:27:33.213Z,3.26
2022-12-06T09:31:19.126Z,3.32
2022-12-06T09:35:02.058Z,3.32
2022-12-06T09:38:45.368Z,3.41
2022-12-06T09:42:47.636Z,3.45
2022-12-06T09:46:54.187Z,3.45
2022-12-06T09:50:41.928Z,3.44
2022-12-06T09:54:35.264Z,5.52
2022-12-06T09:58:27.128Z,5.31
2022-12-06T10:02:24.854Z,5.00
2022-12-06T10:06:10.555Z,4.75
2022-12-06T10:10:03.519Z,4.50
2022-12-06T10:13:56.675Z,4.24
2022-12-06T10:17:52.651Z,3.98
2022-12-06T10:21:46.969Z,3.87
2022-12-06T10:25:38.032Z,3.78
2022-12-06T10:29:29.173Z,3.67
2022-12-06T10:33:32.702Z,3.59
2022-12-06T10:37:22.582Z,3.55
2022-12-06T10:41:13.394Z,3.55
2022-12-06T10:44:58.523Z,3.59
2022-12-06T10:48:49.004Z,3.56
2022-12-06T10:52:37.623Z,3.64
2022-12-06T10:56:24.116Z,3.58
2022-12-06T11:00:14.705Z,3.54
2022-12-06T11:04:04.341Z,3.50
2022-12-06T11:07:49.590Z,3.55
2022-12-06T11:11:35.826Z,3.55
2022-12-06T11:15:22.829Z,3.47
2022-12-06T11:19:16.755Z,3.50
2022-12-06T11:23:07.197Z,3.51
2022-12-06T11:26:53.306Z,3.53
2022-12-06T11:30:36.162Z,3.58
2022-12-06T11:34:23.968Z,3.60
2022-12-06T11:38:08.566Z,3.62
2022-12-06T11:41:54.368Z,3.66
2022-12-06T11:45:39.513Z,3.71
2022-12-06T11:49:28.641Z,3.70
2022-12-06T11:53:17.215Z,3.70
2022-12-06T11:57:02.979Z,3.71
2022-12-06T12:00:58.355Z,3.67
2022-12-06T12:04:43.992Z,3.59
2022-12-06T12:08:32.791Z,3.63
2022-12-06T12:12:17.896Z,3.65
2022-12-06T12:16:02.045Z,3.66
2022-12-06T12:19:48.891Z,3.73
2022-12-06T12:23:34.939Z,3.79
2022-12-06T12:27:36.724Z,3.87
2022-12-06T12:31:23.628Z,3.79
2022-12-06T12:35:30.695Z,3.85
2022-12-06T12:39:24.436Z,3.85
2022-12-06T12:43:09.440Z,3.92
2022-12-06T12:46:55.071Z,3.83
2022-12-06T12:54:59.880Z,3.74
2022-12-06T12:58:43.574Z,3.76
2022-12-06T13:02:28.647Z,3.77
2022-12-06T13:06:38.210Z,3.80
2022-12-06T13:10:24.120Z,3.87
2022-12-06T13:14:07.063Z,3.92
2022-12-06T13:17:59.266Z,3.95
2022-12-06T13:21:45.321Z,4.00
2022-12-06T13:25:28.242Z,4.07
2022-12-06T13:29:21.671Z,4.06
2022-12-06T13:33:06.511Z,4.08
2022-12-06T13:36:52.175Z,4.04
2022-12-06T13:40:41.212Z,3.88
2022-12-06T13:44:42.719Z,3.94
2022-12-06T13:48:40.027Z,4.01
2022-12-06T13:52:55.455Z,4.04
2022-12-06T13:56:40.658Z,4.10
2022-12-06T14:00:50.241Z,4.13
2022-12-06T14:04:38.793Z,4.13
2022-12-06T14:08:21.795Z,4.13
2022-12-06T14:12:13.924Z,4.19
2022-12-06T14:15:56.639Z,4.20
2022-12-06T14:19:44.831Z,4.16
2022-12-06T14:23:30.413Z,4.12
2022-12-06T14:27:18.833Z,4.05
2022-12-06T14:31:05.711Z,4.01
2022-12-06T14:34:48.566Z,3.98
2022-12-06T14:38:32.175Z,3.94
2022-12-06T14:42:36.648Z,3.93
2022-12-06T14:46:22.077Z,3.99
2022-12-06T14:50:27.245Z,3.95
2022-12-06T14:54:19.971Z,3.97
2022-12-06T14:58:15.713Z,3.96
2022-12-06T15:01:58.704Z,3.91
2022-12-06T15:05:43.722Z,3.81
2022-12-06T15:09:26.692Z,3.79
2022-12-06T15:13:16.677Z,3.88
2022-12-06T15:17:02.215Z,3.81
2022-12-06T15:20:44.978Z,3.81
2022-12-06T15:24:28.593Z,3.80
2022-12-06T15:28:16.917Z,3.72
2022-12-06T15:32:02.506Z,3.64
2022-12-06T15:35:45.923Z,3.65
2022-12-06T15:39:28.749Z,3.57
2022-12-06T15:43:25.415Z,3.47
2022-12-06T15:47:08.750Z,3.48
2022-12-06T15:50:51.617Z,3.50
2022-12-06T15:54:34.279Z,3.43
2022-12-06T15:58:18.402Z,3.38
2022-12-06T16:02:01.569Z,3.33
2022-12-06T16:05:44.343Z,3.36
2022-12-06T16:09:27.082Z,3.23
2022-12-06T16:13:25.980Z,3.16
2022-12-06T16:17:13.143Z,3.07
2022-12-06T16:20:55.945Z,3.09
2022-12-06T16:24:38.640Z,3.16
2022-12-06T16:28:21.415Z,3.26
2022-12-06T16:32:04.269Z,3.27
2022-12-06T16:35:48.674Z,3.18
2022-12-06T16:39:33.541Z,3.10
2022-12-06T16:43:19.089Z,3.10
2022-12-06T16:47:02.035Z,3.14
2022-12-06T16:50:45.904Z,3.05
2022-12-06T16:54:30.209Z,3.05
2022-12-06T16:58:13.943Z,3.05
2022-12-06T17:01:56.719Z,3.01
2022-12-06T17:05:39.464Z,3.01
2022-12-06T17:09:22.218Z,3.01
2022-12-06T17:13:06.419Z,3.00
2022-12-06T17:16:50.004Z,2.98
2022-12-06T17:20:33.070Z,2.97
2022-12-06T17:24:17.098Z,3.01
2022-12-06T17:27:59.817Z,3.02
2022-12-06T17:31:44.363Z,2.95
2022-12-06T17:35:32.026Z,3.04
2022-12-06T17:39:16.420Z,3.04
2022-12-06T17:43:02.129Z,3.05
2022-12-06T17:46:46.206Z,3.05
2022-12-06T17:50:29.127Z,3.03
2022-12-06T17:54:12.189Z,3.02
2022-12-06T17:57:54.892Z,3.03
2022-12-06T18:02:13.677Z,3.09
2022-12-06T18:05:44.860Z,2.99
2022-12-06T18:09:27.762Z,3.01
2022-12-06T18:13:10.670Z,2.98
2022-12-06T18:16:56.803Z,2.88
2022-12-06T18:20:39.810Z,2.95
2022-12-06T18:24:27.892Z,2.95
2022-12-06T18:28:14.701Z,2.94
2022-12-06T18:31:57.575Z,3.05
2022-12-06T18:35:40.384Z,3.07
2022-12-06T18:39:25.431Z,3.00
2022-12-06T18:43:08.184Z,2.91
2022-12-06T18:46:50.953Z,3.00
2022-12-06T18:50:33.822Z,2.99
2022-12-06T18:54:24.801Z,3.10
2022-12-06T18:58:07.540Z,3.12
2022-12-06T19:01:50.400Z,3.17
2022-12-06T19:06:01.258Z,3.08
2022-12-06T19:09:40.556Z,3.04
2022-12-06T19:13:23.318Z,3.00
2022-12-06T19:17:08.778Z,2.99
2022-12-06T19:20:51.561Z,2.99
2022-12-06T19:24:34.805Z,2.92
2022-12-06T19:28:18.903Z,2.94
2022-12-06T19:32:02.405Z,2.89
2022-12-06T19:35:45.183Z,2.87
2022-12-06T19:39:28.138Z,2.89
2022-12-06T19:43:28.496Z,2.93
2022-12-06T19:47:13.618Z,2.91
2022-12-06T19:50:56.378Z,2.89
2022-12-06T19:54:40.163Z,2.93
2022-12-06T19:58:23.942Z,2.89
2022-12-06T20:02:07.275Z,2.93
2022-12-06T20:05:51.729Z,2.96
2022-12-06T20:09:35.393Z,2.91
2022-12-06T20:13:18.119Z,2.91
2022-12-06T20:17:00.869Z,2.88
2022-12-06T20:20:47.909Z,2.90
2022-12-06T20:24:37.364Z,2.95
2022-12-06T20:28:21.214Z,2.94
2022-12-06T20:32:04.159Z,2.80
2022-12-06T20:35:46.848Z,2.83
2022-12-06T20:39:40.185Z,2.83
2022-12-06T20:43:23.104Z,2.70
2022-12-06T20:47:06.003Z,2.66
2022-12-06T20:50:50.803Z,2.61
2022-12-06T20:54:50.337Z,2.66
2022-12-06T20:58:33.795Z,2.67
2022-12-06T21:02:16.630Z,2.72
2022-12-06T21:06:00.203Z,2.75
2022-12-06T21:09:53.218Z,2.81
2022-12-06T21:13:36.566Z,2.85
2022-12-06T21:17:19.256Z,2.87
2022-12-06T21:21:02.055Z,2.90
2022-12-06T21:25:01.451Z,2.97
2022-12-06T21:28:44.402Z,2.97
2022-12-06T21:32:27.090Z,2.95
2022-12-06T21:36:11.918Z,2.96
2022-12-06T21:39:54.656Z,2.97
2022-12-06T21:43:38.789Z,2.98
2022-12-06T21:47:21.539Z,2.87
2022-12-06T21:51:05.507Z,2.92
2022-12-06T21:55:09.451Z,2.81
2022-12-06T21:58:54.146Z,2.86
2022-12-06T22:02:37.018Z,2.82
2022-12-06T22:06:20.101Z,2.77
2022-12-06T22:10:03.067Z,2.74
2022-12-06T22:13:46.470Z,2.61
2022-12-06T22:17:30.549Z,2.57
2022-12-06T22:21:15.724Z,2.60
2022-12-06T22:25:04.422Z,2.59
2022-12-06T22:28:49.279Z,2.61
2022-12-06T22:32:35.588Z,2.61
2022-12-06T22:36:18.958Z,2.61
2022-12-06T22:40:31.304Z,2.64
2022-12-06T22:44:14.096Z,2.66
2022-12-06T22:48:05.541Z,2.75
2022-12-06T22:51:48.682Z,2.80
2022-12-06T22:55:38.355Z,2.73
2022-12-06T22:59:22.156Z,2.69
2022-12-06T23:03:06.313Z,2.70
2022-12-06T23:06:49.063Z,2.63
2022-12-06T23:10:43.937Z,2.56
2022-12-06T23:14:26.658Z,2.58
2022-12-06T23:18:10.798Z,2.56
2022-12-06T23:21:56.639Z,2.51
2022-12-06T23:25:48.446Z,2.57
2022-12-06T23:29:31.229Z,2.51
2022-12-06T23:33:19.624Z,2.49
2022-12-06T23:37:06.019Z,2.50
2022-12-06T23:41:02.735Z,2.53
2022-12-06T23:44:45.496Z,2.55
2022-12-06T23:48:31.161Z,2.57
2022-12-06T23:52:14.000Z,2.60
2022-12-06T23:56:07.920Z,2.52
2022-12-06T23:59:50.570Z,2.51
